sensor_id;sensor_type;location;lat;lon;timestamp;temperature;humidity
21815;DHT22;11069;48.988;8.450;2023-07-08T00:00:19;24.00;67.50
21815;DHT22;11069;48.988;8.450;2023-07-08T00:02:45;24.00;68.30
21815;DHT22;11069;48.988;8.450;2023-07-08T00:05:13;23.90;67.50
21815;DHT22;11069;48.988;8.450;2023-07-08T00:07:39;24.00;66.40
21815;DHT22;11069;48.988;8.450;2023-07-08T00:12:46;24.00;66.70
21815;DHT22;11069;48.988;8.450;2023-07-08T00:15:12;24.00;66.30
21815;DHT22;11069;48.988;8.450;2023-07-08T00:17:38;24.00;65.50
21815;DHT22;11069;48.988;8.450;2023-07-08T00:23:00;24.20;65.10
21815;DHT22;11069;48.988;8.450;2023-07-08T00:25:27;24.20;66.00
21815;DHT22;11069;48.988;8.450;2023-07-08T00:27:53;24.10;65.50
21815;DHT22;11069;48.988;8.450;2023-07-08T00:30:31;24.00;66.40
21815;DHT22;11069;48.988;8.450;2023-07-08T00:32:58;23.90;66.70
21815;DHT22;11069;48.988;8.450;2023-07-08T00:35:33;23.80;66.60
21815;DHT22;11069;48.988;8.450;2023-07-08T00:38:00;23.70;67.30
21815;DHT22;11069;48.988;8.450;2023-07-08T00:40:30;23.70;67.40
21815;DHT22;11069;48.988;8.450;2023-07-08T00:42:59;23.70;68.10
21815;DHT22;11069;48.988;8.450;2023-07-08T00:45:35;23.60;67.80
21815;DHT22;11069;48.988;8.450;2023-07-08T00:48:30;23.50;67.60
21815;DHT22;11069;48.988;8.450;2023-07-08T00:50:58;23.50;69.60
21815;DHT22;11069;48.988;8.450;2023-07-08T00:53:31;23.40;69.40
21815;DHT22;11069;48.988;8.450;2023-07-08T00:56:12;23.20;69.40
21815;DHT22;11069;48.988;8.450;2023-07-08T00:58:51;22.90;70.50
21815;DHT22;11069;48.988;8.450;2023-07-08T01:01:20;23.00;70.90
21815;DHT22;11069;48.988;8.450;2023-07-08T01:03:49;22.90;70.90
21815;DHT22;11069;48.988;8.450;2023-07-08T01:06:20;22.70;73.60
21815;DHT22;11069;48.988;8.450;2023-07-08T01:08:48;22.40;74.70
21815;DHT22;11069;48.988;8.450;2023-07-08T01:11:18;22.10;76.10
21815;DHT22;11069;48.988;8.450;2023-07-08T01:13:48;21.90;78.60
21815;DHT22;11069;48.988;8.450;2023-07-08T01:16:15;21.70;78.70
21815;DHT22;11069;48.988;8.450;2023-07-08T01:18:40;21.50;79.30
21815;DHT22;11069;48.988;8.450;2023-07-08T01:21:30;21.30;80.10
21815;DHT22;11069;48.988;8.450;2023-07-08T01:23:56;21.20;81.10
21815;DHT22;11069;48.988;8.450;2023-07-08T01:26:25;21.00;81.80
21815;DHT22;11069;48.988;8.450;2023-07-08T01:28:55;20.90;82.80
21815;DHT22;11069;48.988;8.450;2023-07-08T01:31:22;20.80;82.50
21815;DHT22;11069;48.988;8.450;2023-07-08T01:33:48;20.70;83.50
21815;DHT22;11069;48.988;8.450;2023-07-08T01:36:14;20.60;83.20
21815;DHT22;11069;48.988;8.450;2023-07-08T01:38:41;20.60;83.40
21815;DHT22;11069;48.988;8.450;2023-07-08T01:41:11;20.50;83.00
21815;DHT22;11069;48.988;8.450;2023-07-08T01:43:37;20.50;83.50
21815;DHT22;11069;48.988;8.450;2023-07-08T01:46:03;20.30;84.60
21815;DHT22;11069;48.988;8.450;2023-07-08T01:48:33;20.20;87.50
21815;DHT22;11069;48.988;8.450;2023-07-08T01:51:04;20.10;87.10
21815;DHT22;11069;48.988;8.450;2023-07-08T01:53:36;20.00;87.40
21815;DHT22;11069;48.988;8.450;2023-07-08T01:56:02;19.90;88.80
21815;DHT22;11069;48.988;8.450;2023-07-08T01:58:28;19.70;90.60
21815;DHT22;11069;48.988;8.450;2023-07-08T02:00:54;19.60;90.80
21815;DHT22;11069;48.988;8.450;2023-07-08T02:03:20;19.60;90.20
21815;DHT22;11069;48.988;8.450;2023-07-08T02:05:46;19.70;89.50
21815;DHT22;11069;48.988;8.450;2023-07-08T02:08:12;19.60;88.30
21815;DHT22;11069;48.988;8.450;2023-07-08T02:10:38;19.70;89.70
21815;DHT22;11069;48.988;8.450;2023-07-08T02:13:07;19.60;90.20
21815;DHT22;11069;48.988;8.450;2023-07-08T02:15:33;19.60;91.00
21815;DHT22;11069;48.988;8.450;2023-07-08T02:17:59;19.60;90.00
21815;DHT22;11069;48.988;8.450;2023-07-08T02:20:24;19.50;89.50
21815;DHT22;11069;48.988;8.450;2023-07-08T02:22:50;19.50;90.00
21815;DHT22;11069;48.988;8.450;2023-07-08T02:25:16;19.60;89.00
21815;DHT22;11069;48.988;8.450;2023-07-08T02:27:42;19.40;88.90
21815;DHT22;11069;48.988;8.450;2023-07-08T02:30:11;19.50;90.00
21815;DHT22;11069;48.988;8.450;2023-07-08T02:32:36;19.50;89.90
21815;DHT22;11069;48.988;8.450;2023-07-08T02:35:04;19.40;90.00
21815;DHT22;11069;48.988;8.450;2023-07-08T02:37:30;19.60;90.00
21815;DHT22;11069;48.988;8.450;2023-07-08T02:39:56;19.40;90.20
21815;DHT22;11069;48.988;8.450;2023-07-08T02:42:21;19.50;90.20
21815;DHT22;11069;48.988;8.450;2023-07-08T02:44:47;19.70;90.10
21815;DHT22;11069;48.988;8.450;2023-07-08T02:47:13;19.70;90.60
21815;DHT22;11069;48.988;8.450;2023-07-08T02:49:38;20.00;87.00
21815;DHT22;11069;48.988;8.450;2023-07-08T02:52:04;20.00;87.40
21815;DHT22;11069;48.988;8.450;2023-07-08T02:54:29;20.30;86.50
21815;DHT22;11069;48.988;8.450;2023-07-08T02:56:55;20.30;86.30
21815;DHT22;11069;48.988;8.450;2023-07-08T02:59:20;20.30;87.50
21815;DHT22;11069;48.988;8.450;2023-07-08T03:01:46;20.20;88.40
21815;DHT22;11069;48.988;8.450;2023-07-08T03:04:13;20.00;87.90
21815;DHT22;11069;48.988;8.450;2023-07-08T03:06:40;19.90;90.20
21815;DHT22;11069;48.988;8.450;2023-07-08T03:09:06;19.70;90.40
21815;DHT22;11069;48.988;8.450;2023-07-08T03:11:32;19.60;91.40
21815;DHT22;11069;48.988;8.450;2023-07-08T03:13:57;19.50;91.50
21815;DHT22;11069;48.988;8.450;2023-07-08T03:16:23;19.40;91.50
21815;DHT22;11069;48.988;8.450;2023-07-08T03:18:48;19.20;91.70
21815;DHT22;11069;48.988;8.450;2023-07-08T03:21:16;18.80;93.40
21815;DHT22;11069;48.988;8.450;2023-07-08T03:23:43;18.60;93.80
21815;DHT22;11069;48.988;8.450;2023-07-08T03:26:20;18.50;94.60
21815;DHT22;11069;48.988;8.450;2023-07-08T03:28:47;18.50;94.40
21815;DHT22;11069;48.988;8.450;2023-07-08T03:31:16;18.60;93.70
21815;DHT22;11069;48.988;8.450;2023-07-08T03:33:42;18.60;93.90
21815;DHT22;11069;48.988;8.450;2023-07-08T03:36:12;18.60;93.70
21815;DHT22;11069;48.988;8.450;2023-07-08T03:38:41;18.50;94.10
21815;DHT22;11069;48.988;8.450;2023-07-08T03:41:07;18.40;95.10
21815;DHT22;11069;48.988;8.450;2023-07-08T03:43:32;18.30;95.20
21815;DHT22;11069;48.988;8.450;2023-07-08T03:45:58;18.20;96.00
21815;DHT22;11069;48.988;8.450;2023-07-08T03:48:23;18.20;96.10
21815;DHT22;11069;48.988;8.450;2023-07-08T03:50:49;18.20;96.60
21815;DHT22;11069;48.988;8.450;2023-07-08T03:53:15;18.30;97.00
21815;DHT22;11069;48.988;8.450;2023-07-08T03:55:40;18.30;96.30
21815;DHT22;11069;48.988;8.450;2023-07-08T03:58:08;18.30;95.60
21815;DHT22;11069;48.988;8.450;2023-07-08T04:00:34;18.30;96.00
21815;DHT22;11069;48.988;8.450;2023-07-08T04:02:59;18.50;96.40
21815;DHT22;11069;48.988;8.450;2023-07-08T04:05:25;18.50;97.10
21815;DHT22;11069;48.988;8.450;2023-07-08T04:07:51;18.50;98.30
21815;DHT22;11069;48.988;8.450;2023-07-08T04:10:16;18.70;97.70
21815;DHT22;11069;48.988;8.450;2023-07-08T04:12:42;18.80;97.50
21815;DHT22;11069;48.988;8.450;2023-07-08T04:15:09;19.10;96.50
21815;DHT22;11069;48.988;8.450;2023-07-08T04:17:41;19.30;95.80
21815;DHT22;11069;48.988;8.450;2023-07-08T04:20:09;19.40;95.60
21815;DHT22;11069;48.988;8.450;2023-07-08T04:22:36;19.50;94.40
21815;DHT22;11069;48.988;8.450;2023-07-08T04:25:02;19.90;91.80
21815;DHT22;11069;48.988;8.450;2023-07-08T04:27:31;20.60;90.20
21815;DHT22;11069;48.988;8.450;2023-07-08T04:29:57;20.90;89.90
21815;DHT22;11069;48.988;8.450;2023-07-08T04:32:23;21.20;87.50
21815;DHT22;11069;48.988;8.450;2023-07-08T04:34:52;21.20;90.80
21815;DHT22;11069;48.988;8.450;2023-07-08T04:37:18;21.30;91.80
21815;DHT22;11069;48.988;8.450;2023-07-08T04:39:44;21.30;91.20
21815;DHT22;11069;48.988;8.450;2023-07-08T04:42:10;21.30;90.20
21815;DHT22;11069;48.988;8.450;2023-07-08T04:44:38;21.60;85.10
21815;DHT22;11069;48.988;8.450;2023-07-08T04:47:04;21.90;85.40
21815;DHT22;11069;48.988;8.450;2023-07-08T04:49:29;22.10;84.80
21815;DHT22;11069;48.988;8.450;2023-07-08T04:51:57;22.30;83.50
21815;DHT22;11069;48.988;8.450;2023-07-08T04:54:24;22.40;84.40
21815;DHT22;11069;48.988;8.450;2023-07-08T04:56:50;22.50;83.50
21815;DHT22;11069;48.988;8.450;2023-07-08T04:59:23;22.60;85.40
21815;DHT22;11069;48.988;8.450;2023-07-08T05:01:49;22.60;88.10
21815;DHT22;11069;48.988;8.450;2023-07-08T05:04:16;22.60;88.90
21815;DHT22;11069;48.988;8.450;2023-07-08T05:06:42;22.50;89.10
21815;DHT22;11069;48.988;8.450;2023-07-08T05:09:08;22.20;90.30
21815;DHT22;11069;48.988;8.450;2023-07-08T05:11:35;22.10;91.60
21815;DHT22;11069;48.988;8.450;2023-07-08T05:14:04;21.90;92.10
21815;DHT22;11069;48.988;8.450;2023-07-08T05:16:32;21.70;93.00
21815;DHT22;11069;48.988;8.450;2023-07-08T05:18:58;21.50;94.00
21815;DHT22;11069;48.988;8.450;2023-07-08T05:21:23;21.50;94.60
21815;DHT22;11069;48.988;8.450;2023-07-08T05:23:50;21.50;95.10
21815;DHT22;11069;48.988;8.450;2023-07-08T05:26:16;21.50;94.80
21815;DHT22;11069;48.988;8.450;2023-07-08T05:28:42;21.60;95.10
21815;DHT22;11069;48.988;8.450;2023-07-08T05:31:08;21.60;94.70
21815;DHT22;11069;48.988;8.450;2023-07-08T05:33:34;21.70;94.50
21815;DHT22;11069;48.988;8.450;2023-07-08T05:36:00;21.60;94.60
21815;DHT22;11069;48.988;8.450;2023-07-08T05:38:26;21.70;94.60
21815;DHT22;11069;48.988;8.450;2023-07-08T05:40:59;21.80;95.00
21815;DHT22;11069;48.988;8.450;2023-07-08T05:43:25;21.90;94.30
21815;DHT22;11069;48.988;8.450;2023-07-08T05:45:52;22.00;94.30
21815;DHT22;11069;48.988;8.450;2023-07-08T05:48:22;22.10;94.20
21815;DHT22;11069;48.988;8.450;2023-07-08T05:50:47;22.20;94.20
21815;DHT22;11069;48.988;8.450;2023-07-08T05:53:13;22.30;93.40
21815;DHT22;11069;48.988;8.450;2023-07-08T05:55:39;22.40;92.90
21815;DHT22;11069;48.988;8.450;2023-07-08T05:58:07;22.50;92.60
21815;DHT22;11069;48.988;8.450;2023-07-08T06:00:34;22.60;92.80
21815;DHT22;11069;48.988;8.450;2023-07-08T06:02:59;22.80;92.60
21815;DHT22;11069;48.988;8.450;2023-07-08T06:05:25;22.80;92.50
21815;DHT22;11069;48.988;8.450;2023-07-08T06:07:50;23.10;92.80
21815;DHT22;11069;48.988;8.450;2023-07-08T06:10:16;23.20;92.80
21815;DHT22;11069;48.988;8.450;2023-07-08T06:12:42;23.10;92.30
21815;DHT22;11069;48.988;8.450;2023-07-08T06:15:07;24.00;91.90
21815;DHT22;11069;48.988;8.450;2023-07-08T06:17:33;25.40;90.70
21815;DHT22;11069;48.988;8.450;2023-07-08T06:19:59;26.40;90.40
21815;DHT22;11069;48.988;8.450;2023-07-08T06:22:24;29.60;86.10
21815;DHT22;11069;48.988;8.450;2023-07-08T06:24:50;30.60;78.70
21815;DHT22;11069;48.988;8.450;2023-07-08T06:27:15;31.50;71.60
21815;DHT22;11069;48.988;8.450;2023-07-08T06:29:41;31.20;70.10
21815;DHT22;11069;48.988;8.450;2023-07-08T06:32:07;31.00;74.00
21815;DHT22;11069;48.988;8.450;2023-07-08T06:34:33;30.90;75.90
21815;DHT22;11069;48.988;8.450;2023-07-08T06:36:59;30.90;71.30
21815;DHT22;11069;48.988;8.450;2023-07-08T06:39:24;31.10;74.10
21815;DHT22;11069;48.988;8.450;2023-07-08T06:41:50;31.90;75.50
21815;DHT22;11069;48.988;8.450;2023-07-08T06:44:15;31.20;72.20
21815;DHT22;11069;48.988;8.450;2023-07-08T06:46:41;29.80;73.70
21815;DHT22;11069;48.988;8.450;2023-07-08T06:49:06;28.30;79.50
21815;DHT22;11069;48.988;8.450;2023-07-08T06:51:34;27.60;81.90
21815;DHT22;11069;48.988;8.450;2023-07-08T06:54:00;27.10;82.70
21815;DHT22;11069;48.988;8.450;2023-07-08T06:56:29;27.50;84.00
21815;DHT22;11069;48.988;8.450;2023-07-08T06:58:55;27.20;84.90
21815;DHT22;11069;48.988;8.450;2023-07-08T07:01:20;25.80;86.60
21815;DHT22;11069;48.988;8.450;2023-07-08T07:03:46;25.60;88.60
21815;DHT22;11069;48.988;8.450;2023-07-08T07:06:12;25.00;88.40
21815;DHT22;11069;48.988;8.450;2023-07-08T07:08:37;25.30;90.40
21815;DHT22;11069;48.988;8.450;2023-07-08T07:11:03;25.20;91.10
21815;DHT22;11069;48.988;8.450;2023-07-08T07:13:28;25.10;90.00
21815;DHT22;11069;48.988;8.450;2023-07-08T07:15:54;25.60;91.00
21815;DHT22;11069;48.988;8.450;2023-07-08T07:18:20;25.30;89.40
21815;DHT22;11069;48.988;8.450;2023-07-08T07:20:52;25.00;91.20
21815;DHT22;11069;48.988;8.450;2023-07-08T07:23:18;24.90;92.00
21815;DHT22;11069;48.988;8.450;2023-07-08T07:25:45;25.10;91.60
21815;DHT22;11069;48.988;8.450;2023-07-08T07:28:13;25.20;91.80
21815;DHT22;11069;48.988;8.450;2023-07-08T07:30:39;25.50;90.70
21815;DHT22;11069;48.988;8.450;2023-07-08T07:33:04;25.30;91.10
21815;DHT22;11069;48.988;8.450;2023-07-08T07:35:30;25.00;93.30
21815;DHT22;11069;48.988;8.450;2023-07-08T07:37:55;25.10;93.80
21815;DHT22;11069;48.988;8.450;2023-07-08T07:40:21;25.70;92.00
21815;DHT22;11069;48.988;8.450;2023-07-08T07:42:46;26.30;92.20
21815;DHT22;11069;48.988;8.450;2023-07-08T07:45:13;26.60;90.10
21815;DHT22;11069;48.988;8.450;2023-07-08T07:47:39;27.30;88.90
21815;DHT22;11069;48.988;8.450;2023-07-08T07:50:06;27.90;90.40
21815;DHT22;11069;48.988;8.450;2023-07-08T07:52:32;28.60;86.40
21815;DHT22;11069;48.988;8.450;2023-07-08T07:54:58;29.40;87.80
21815;DHT22;11069;48.988;8.450;2023-07-08T07:57:24;29.00;82.90
21815;DHT22;11069;48.988;8.450;2023-07-08T07:59:50;29.40;83.70
21815;DHT22;11069;48.988;8.450;2023-07-08T08:02:16;29.40;83.40
21815;DHT22;11069;48.988;8.450;2023-07-08T08:04:42;29.50;86.30
21815;DHT22;11069;48.988;8.450;2023-07-08T08:07:11;29.70;83.10
21815;DHT22;11069;48.988;8.450;2023-07-08T08:09:37;29.60;80.40
21815;DHT22;11069;48.988;8.450;2023-07-08T08:12:03;29.70;81.50
21815;DHT22;11069;48.988;8.450;2023-07-08T08:14:29;29.20;82.20
21815;DHT22;11069;48.988;8.450;2023-07-08T08:16:55;29.30;83.50
21815;DHT22;11069;48.988;8.450;2023-07-08T08:19:20;29.90;84.30
21815;DHT22;11069;48.988;8.450;2023-07-08T08:21:46;30.20;81.20
21815;DHT22;11069;48.988;8.450;2023-07-08T08:24:12;30.50;79.60
21815;DHT22;11069;48.988;8.450;2023-07-08T08:26:37;30.20;79.10
21815;DHT22;11069;48.988;8.450;2023-07-08T08:29:03;29.90;76.80
21815;DHT22;11069;48.988;8.450;2023-07-08T08:31:28;29.80;77.90
21815;DHT22;11069;48.988;8.450;2023-07-08T08:33:56;29.90;78.70
21815;DHT22;11069;48.988;8.450;2023-07-08T08:36:22;30.10;74.40
21815;DHT22;11069;48.988;8.450;2023-07-08T08:38:48;29.90;73.00
21815;DHT22;11069;48.988;8.450;2023-07-08T08:41:16;30.00;74.40
21815;DHT22;11069;48.988;8.450;2023-07-08T08:43:43;30.20;72.90
21815;DHT22;11069;48.988;8.450;2023-07-08T08:46:25;30.20;72.90
21815;DHT22;11069;48.988;8.450;2023-07-08T08:49:01;30.40;72.90
21815;DHT22;11069;48.988;8.450;2023-07-08T08:51:30;30.00;69.90
21815;DHT22;11069;48.988;8.450;2023-07-08T08:53:57;30.10;67.60
21815;DHT22;11069;48.988;8.450;2023-07-08T08:56:39;30.20;68.70
21815;DHT22;11069;48.988;8.450;2023-07-08T09:01:40;30.50;68.90
21815;DHT22;11069;48.988;8.450;2023-07-08T09:04:15;30.70;67.30
21815;DHT22;11069;48.988;8.450;2023-07-08T09:06:42;30.80;66.90
21815;DHT22;11069;48.988;8.450;2023-07-08T09:09:42;30.50;68.10
21815;DHT22;11069;48.988;8.450;2023-07-08T09:12:17;30.50;66.00
21815;DHT22;11069;48.988;8.450;2023-07-08T09:14:43;30.60;66.70
21815;DHT22;11069;48.988;8.450;2023-07-08T09:17:23;30.50;67.50
21815;DHT22;11069;48.988;8.450;2023-07-08T09:20:11;30.70;67.00
21815;DHT22;11069;48.988;8.450;2023-07-08T09:23:09;30.80;64.70
21815;DHT22;11069;48.988;8.450;2023-07-08T09:26:21;31.00;67.50
21815;DHT22;11069;48.988;8.450;2023-07-08T09:28:41;31.50;67.70
21815;DHT22;11069;48.988;8.450;2023-07-08T09:31:09;31.30;67.80
21815;DHT22;11069;48.988;8.450;2023-07-08T09:33:44;31.50;66.10
21815;DHT22;11069;48.988;8.450;2023-07-08T09:36:18;31.70;65.20
21815;DHT22;11069;48.988;8.450;2023-07-08T09:38:47;31.70;62.50
21815;DHT22;11069;48.988;8.450;2023-07-08T09:41:14;31.60;63.80
21815;DHT22;11069;48.988;8.450;2023-07-08T09:43:42;31.90;65.00
21815;DHT22;11069;48.988;8.450;2023-07-08T09:46:12;32.30;69.50
21815;DHT22;11069;48.988;8.450;2023-07-08T09:48:38;32.40;63.90
21815;DHT22;11069;48.988;8.450;2023-07-08T09:51:04;32.50;62.70
21815;DHT22;11069;48.988;8.450;2023-07-08T09:53:30;32.50;62.50
21815;DHT22;11069;48.988;8.450;2023-07-08T09:55:58;32.90;61.90
21815;DHT22;11069;48.988;8.450;2023-07-08T09:58:33;33.00;66.40
21815;DHT22;11069;48.988;8.450;2023-07-08T10:01:01;33.40;62.60
21815;DHT22;11069;48.988;8.450;2023-07-08T10:03:33;32.80;60.60
21815;DHT22;11069;48.988;8.450;2023-07-08T10:06:05;33.00;63.40
21815;DHT22;11069;48.988;8.450;2023-07-08T10:08:37;32.90;64.50
21815;DHT22;11069;48.988;8.450;2023-07-08T10:11:32;32.80;62.30
21815;DHT22;11069;48.988;8.450;2023-07-08T10:14:05;32.90;65.00
21815;DHT22;11069;48.988;8.450;2023-07-08T10:16:33;31.80;64.80
21815;DHT22;11069;48.988;8.450;2023-07-08T10:18:59;32.30;64.80
21815;DHT22;11069;48.988;8.450;2023-07-08T10:27:15;32.60;64.00
21815;DHT22;11069;48.988;8.450;2023-07-08T10:35:17;33.40;62.00
21815;DHT22;11069;48.988;8.450;2023-07-08T10:51:26;33.60;62.10
21815;DHT22;11069;48.988;8.450;2023-07-08T10:56:38;32.70;63.50
21815;DHT22;11069;48.988;8.450;2023-07-08T11:09:53;32.10;67.50
21815;DHT22;11069;48.988;8.450;2023-07-08T11:17:47;34.00;67.30
21815;DHT22;11069;48.988;8.450;2023-07-08T11:23:02;32.40;63.10
21815;DHT22;11069;48.988;8.450;2023-07-08T11:25:31;32.30;64.90
21815;DHT22;11069;48.988;8.450;2023-07-08T11:28:00;32.50;68.70
21815;DHT22;11069;48.988;8.450;2023-07-08T11:30:30;33.40;64.20
21815;DHT22;11069;48.988;8.450;2023-07-08T11:33:03;33.50;62.40
21815;DHT22;11069;48.988;8.450;2023-07-08T11:35:45;33.20;66.50
21815;DHT22;11069;48.988;8.450;2023-07-08T11:38:15;33.30;63.90
21815;DHT22;11069;48.988;8.450;2023-07-08T11:40:57;32.60;64.90
21815;DHT22;11069;48.988;8.450;2023-07-08T11:43:33;32.30;65.40
21815;DHT22;11069;48.988;8.450;2023-07-08T11:46:04;32.30;67.50
21815;DHT22;11069;48.988;8.450;2023-07-08T11:48:38;33.00;63.80
21815;DHT22;11069;48.988;8.450;2023-07-08T11:51:06;32.40;65.10
21815;DHT22;11069;48.988;8.450;2023-07-08T11:53:38;32.60;69.40
21815;DHT22;11069;48.988;8.450;2023-07-08T11:58:50;33.10;63.50
21815;DHT22;11069;48.988;8.450;2023-07-08T12:01:27;34.30;62.60
21815;DHT22;11069;48.988;8.450;2023-07-08T12:03:59;33.00;62.70
21815;DHT22;11069;48.988;8.450;2023-07-08T12:08:57;33.50;63.80
21815;DHT22;11069;48.988;8.450;2023-07-08T12:11:35;34.10;61.20
21815;DHT22;11069;48.988;8.450;2023-07-08T12:14:03;34.40;59.70
21815;DHT22;11069;48.988;8.450;2023-07-08T12:16:31;34.00;61.90
21815;DHT22;11069;48.988;8.450;2023-07-08T12:18:59;33.30;65.60
21815;DHT22;11069;48.988;8.450;2023-07-08T12:21:27;33.00;63.20
21815;DHT22;11069;48.988;8.450;2023-07-08T12:23:53;33.10;65.40
21815;DHT22;11069;48.988;8.450;2023-07-08T12:26:19;32.30;62.30
21815;DHT22;11069;48.988;8.450;2023-07-08T12:28:45;32.50;66.20
21815;DHT22;11069;48.988;8.450;2023-07-08T12:31:22;32.70;67.90
21815;DHT22;11069;48.988;8.450;2023-07-08T12:33:48;32.90;66.60
21815;DHT22;11069;48.988;8.450;2023-07-08T12:36:18;32.80;66.30
21815;DHT22;11069;48.988;8.450;2023-07-08T12:38:45;33.50;64.90
21815;DHT22;11069;48.988;8.450;2023-07-08T12:43:39;35.00;58.60
21815;DHT22;11069;48.988;8.450;2023-07-08T12:46:05;35.10;59.30
21815;DHT22;11069;48.988;8.450;2023-07-08T12:48:34;34.90;65.90
21815;DHT22;11069;48.988;8.450;2023-07-08T12:51:00;35.70;58.40
21815;DHT22;11069;48.988;8.450;2023-07-08T12:53:25;35.80;57.60
21815;DHT22;11069;48.988;8.450;2023-07-08T12:55:53;35.80;57.60
21815;DHT22;11069;48.988;8.450;2023-07-08T12:58:25;34.90;59.20
21815;DHT22;11069;48.988;8.450;2023-07-08T13:00:51;35.00;60.40
21815;DHT22;11069;48.988;8.450;2023-07-08T13:03:19;35.50;59.30
21815;DHT22;11069;48.988;8.450;2023-07-08T13:05:49;36.20;58.30
21815;DHT22;11069;48.988;8.450;2023-07-08T13:08:17;36.10;61.00
21815;DHT22;11069;48.988;8.450;2023-07-08T13:10:44;36.20;58.70
21815;DHT22;11069;48.988;8.450;2023-07-08T13:13:23;36.00;62.20
21815;DHT22;11069;48.988;8.450;2023-07-08T13:15:49;35.40;58.80
21815;DHT22;11069;48.988;8.450;2023-07-08T13:20:53;33.80;60.70
21815;DHT22;11069;48.988;8.450;2023-07-08T13:23:19;33.80;61.80
21815;DHT22;11069;48.988;8.450;2023-07-08T13:25:47;33.60;60.70
21815;DHT22;11069;48.988;8.450;2023-07-08T13:28:24;32.90;59.90
21815;DHT22;11069;48.988;8.450;2023-07-08T13:31:01;33.80;65.60
21815;DHT22;11069;48.988;8.450;2023-07-08T13:33:34;33.90;58.10
21815;DHT22;11069;48.988;8.450;2023-07-08T13:36:04;33.90;60.00
21815;DHT22;11069;48.988;8.450;2023-07-08T13:38:35;34.00;60.90
21815;DHT22;11069;48.988;8.450;2023-07-08T13:41:06;35.60;58.80
21815;DHT22;11069;48.988;8.450;2023-07-08T13:43:34;36.60;59.10
21815;DHT22;11069;48.988;8.450;2023-07-08T13:46:01;37.00;54.80
21815;DHT22;11069;48.988;8.450;2023-07-08T13:48:30;37.50;55.80
21815;DHT22;11069;48.988;8.450;2023-07-08T13:56:22;35.30;58.40
21815;DHT22;11069;48.988;8.450;2023-07-08T13:58:53;36.10;54.50
21815;DHT22;11069;48.988;8.450;2023-07-08T14:01:24;36.90;54.90
21815;DHT22;11069;48.988;8.450;2023-07-08T14:03:52;37.50;53.80
21815;DHT22;11069;48.988;8.450;2023-07-08T14:06:24;37.20;59.20
21815;DHT22;11069;48.988;8.450;2023-07-08T14:08:55;38.00;53.20
21815;DHT22;11069;48.988;8.450;2023-07-08T14:11:22;37.10;56.10
21815;DHT22;11069;48.988;8.450;2023-07-08T14:13:47;36.00;53.80
21815;DHT22;11069;48.988;8.450;2023-07-08T14:16:25;35.80;57.50
21815;DHT22;11069;48.988;8.450;2023-07-08T14:18:53;36.60;60.40
21815;DHT22;11069;48.988;8.450;2023-07-08T14:21:19;36.00;56.30
21815;DHT22;11069;48.988;8.450;2023-07-08T14:23:45;36.40;56.40
21815;DHT22;11069;48.988;8.450;2023-07-08T14:26:10;37.40;54.30
21815;DHT22;11069;48.988;8.450;2023-07-08T14:28:36;37.60;53.60
21815;DHT22;11069;48.988;8.450;2023-07-08T14:31:02;37.90;53.30
21815;DHT22;11069;48.988;8.450;2023-07-08T14:33:28;37.90;53.40
21815;DHT22;11069;48.988;8.450;2023-07-08T14:35:53;37.50;53.30
21815;DHT22;11069;48.988;8.450;2023-07-08T14:38:19;36.00;57.30
21815;DHT22;11069;48.988;8.450;2023-07-08T14:40:45;36.50;54.90
21815;DHT22;11069;48.988;8.450;2023-07-08T14:43:18;37.00;53.60
21815;DHT22;11069;48.988;8.450;2023-07-08T14:45:49;37.20;53.10
21815;DHT22;11069;48.988;8.450;2023-07-08T14:48:15;37.40;53.70
21815;DHT22;11069;48.988;8.450;2023-07-08T14:50:41;37.70;51.70
21815;DHT22;11069;48.988;8.450;2023-07-08T14:53:07;37.80;55.50
21815;DHT22;11069;48.988;8.450;2023-07-08T14:55:33;37.60;55.40
21815;DHT22;11069;48.988;8.450;2023-07-08T14:58:00;38.20;55.90
21815;DHT22;11069;48.988;8.450;2023-07-08T15:00:26;37.80;54.00
21815;DHT22;11069;48.988;8.450;2023-07-08T15:02:52;37.80;52.50
21815;DHT22;11069;48.988;8.450;2023-07-08T15:05:20;38.20;51.00
21815;DHT22;11069;48.988;8.450;2023-07-08T15:07:50;38.40;51.40
21815;DHT22;11069;48.988;8.450;2023-07-08T15:10:16;38.50;52.70
21815;DHT22;11069;48.988;8.450;2023-07-08T15:12:42;38.60;50.70
21815;DHT22;11069;48.988;8.450;2023-07-08T15:15:18;36.70;52.30
21815;DHT22;11069;48.988;8.450;2023-07-08T15:17:48;36.30;55.30
21815;DHT22;11069;48.988;8.450;2023-07-08T15:20:14;36.60;53.60
21815;DHT22;11069;48.988;8.450;2023-07-08T15:22:42;37.00;54.40
21815;DHT22;11069;48.988;8.450;2023-07-08T15:25:10;36.60;52.90
21815;DHT22;11069;48.988;8.450;2023-07-08T15:27:36;35.60;58.10
21815;DHT22;11069;48.988;8.450;2023-07-08T15:30:02;37.00;52.80
21815;DHT22;11069;48.988;8.450;2023-07-08T15:32:28;37.70;51.50
21815;DHT22;11069;48.988;8.450;2023-07-08T15:34:54;36.90;57.50
21815;DHT22;11069;48.988;8.450;2023-07-08T15:37:19;36.40;57.70
21815;DHT22;11069;48.988;8.450;2023-07-08T15:39:45;36.60;56.70
21815;DHT22;11069;48.988;8.450;2023-07-08T15:42:14;36.80;56.60
21815;DHT22;11069;48.988;8.450;2023-07-08T15:44:40;37.50;53.30
21815;DHT22;11069;48.988;8.450;2023-07-08T15:47:07;37.60;50.00
21815;DHT22;11069;48.988;8.450;2023-07-08T15:49:37;37.80;50.70
21815;DHT22;11069;48.988;8.450;2023-07-08T15:52:06;37.80;52.70
21815;DHT22;11069;48.988;8.450;2023-07-08T15:54:32;38.10;53.90
21815;DHT22;11069;48.988;8.450;2023-07-08T15:56:58;36.80;53.50
21815;DHT22;11069;48.988;8.450;2023-07-08T15:59:26;37.10;52.80
21815;DHT22;11069;48.988;8.450;2023-07-08T16:01:52;37.50;50.70
21815;DHT22;11069;48.988;8.450;2023-07-08T16:04:34;37.70;51.10
21815;DHT22;11069;48.988;8.450;2023-07-08T16:07:03;37.90;53.00
21815;DHT22;11069;48.988;8.450;2023-07-08T16:09:28;36.40;54.10
21815;DHT22;11069;48.988;8.450;2023-07-08T16:11:54;37.00;53.10
21815;DHT22;11069;48.988;8.450;2023-07-08T16:14:20;37.40;52.80
21815;DHT22;11069;48.988;8.450;2023-07-08T16:16:45;37.80;50.30
21815;DHT22;11069;48.988;8.450;2023-07-08T16:19:12;38.20;51.50
21815;DHT22;11069;48.988;8.450;2023-07-08T16:21:39;36.50;50.70
21815;DHT22;11069;48.988;8.450;2023-07-08T16:24:05;35.60;53.00
21815;DHT22;11069;48.988;8.450;2023-07-08T16:26:31;35.20;56.20
21815;DHT22;11069;48.988;8.450;2023-07-08T16:28:57;35.00;54.70
21815;DHT22;11069;48.988;8.450;2023-07-08T16:31:25;35.10;56.70
21815;DHT22;11069;48.988;8.450;2023-07-08T16:33:54;35.00;58.30
21815;DHT22;11069;48.988;8.450;2023-07-08T16:36:25;34.40;57.30
21815;DHT22;11069;48.988;8.450;2023-07-08T16:38:51;34.80;55.00
21815;DHT22;11069;48.988;8.450;2023-07-08T16:41:21;34.90;57.60
21815;DHT22;11069;48.988;8.450;2023-07-08T16:43:48;34.50;59.60
21815;DHT22;11069;48.988;8.450;2023-07-08T16:46:17;35.20;57.30